05:19
Airports
History
Links
Donate
Help keep this website running!
PayPal
Bitcoin
Information on this page is community maintained and may be outdated or inaccurate and is intended for reference only or PC simulator navigating.
Always use approved charts for navigating.
EDTF
FREIBURG
FREIBURG (EDTF)
Freiburg, Baden-Wurttemberg, Germany (79108)
(C)
Lat/Lng:48° 1' 21.55" N / 7° 49' 57.3" E
48.022653 / 7.832583
Elevation:799'ft 244mMSL
ID / ICAO:EDTF
Runways:1
Longest:(16-34) 1,239.2m 4,066ft Asphalt
Controlled:Yes
Distance To
Airport ID:
Airport Radio Frequencies
Tower: 118.25, 128.95
Nearby VORs <50NM
Nearby NDBs
Nearby WeatherUpdated 10-14-09 13:00 GMT
Nearby weather at LFSC, Meyenheim AB located 21.2 nautical miles from EDTF
Altimeter: 30.33
Visibility: statute miles
Wind: 12 knots (010°)
Temp: 9°c 48°f
Humidity: 42.6%

METAR: LFSC 141300Z AUTO 01012KT 340V060 //// // ///////// 09/M03 Q1027

(Powered by phpweather)
Runway 16 / 34
Dimensions:1239.2 x 29.9m 4066' x 98'ft
Surface:Asphalt
Edge Lights:Low intensity
Runway 16 [A]Runway 34 [B]
Heading:159°TH 339°TH
Lat:
Lng:
48° 1' 40.4"N
7° 49' 46.9"E
48° 1' 2.7"N
7° 50' 7.7"E
User Notes and Comments
Google Map
Nearby Airports
(U) BREMGARTEN 12.9 NM
EDTG SW 230°
(C) Meyenheim AB 21.2 NM
LFSC (WX) WSW 250°
(C) Houssen 22.7 NM
LFGA WNW 285°
(C) LAHR 23.9 NM
EDTL N 359°
(C) Habsheim 26.9 NM
LFGB SW 223°
(U) Offenburg Baden 29.7 NM
EDTO N
(U) DONAUESCHINGEN VILLINGEN 32.1 NM
EDTD E 96°
VFR Chart
Flight Planning at SkyVector.com